Time;durP1;ratioP1;P1;durP2;ratioP2;P2;SDS_P1;SDS_P2;PMS_P1;PMS_P2;Temp;Humidity;BMP_temperature;BMP_pressure;BME280_temperature;BME280_humidity;BME280_pressure;Samples;Min_cycle;Max_cycle;Signal;HPM_P1;HPM_P2
2022/02/22 00:09:45;;;;;;;33.0;9.1;;;;;;;5.4;100.0;101480;;;;
2022/02/22 00:11:45;;;;;;;27.2;7.9;;;;;;;5.5;100.0;101480;;;;
2022/02/22 00:13:45;;;;;;;27.2;7.9;;;;;;;5.4;100.0;101490;;;;
2022/02/22 00:19:45;;;;;;;27.2;7.9;;;;;;;5.3;100.0;101500;;;;
2022/02/22 00:23:45;;;;;;;27.2;7.9;;;;;;;5.2;100.0;101500;;;;
2022/02/22 00:25:45;;;;;;;27.2;7.9;;;;;;;5.3;100.0;101500;;;;
2022/02/22 00:31:45;;;;;;;30.0;8.0;;;;;;;5.2;100.0;101500;;;;
2022/02/22 00:39:45;;;;;;;30.0;8.0;;;;;;;5.1;100.0;101520;;;;
2022/02/22 00:43:45;;;;;;;30.0;8.0;;;;;;;5.0;100.0;101520;;;;
2022/02/22 00:47:45;;;;;;;30.0;8.0;;;;;;;4.9;100.0;101520;;;;
2022/02/22 00:49:45;;;;;;;30.0;8.0;;;;;;;5.0;100.0;101520;;;;
2022/02/22 00:51:45;;;;;;;30.0;8.3;;;;;;;4.9;100.0;101530;;;;
2022/02/22 01:01:45;;;;;;;30.0;8.3;;;;;;;4.8;100.0;101560;;;;
2022/02/22 01:07:45;;;;;;;30.0;8.3;;;;;;;4.9;100.0;101550;;;;
2022/02/22 01:09:45;;;;;;;30.0;8.3;;;;;;;4.8;100.0;101560;;;;
2022/02/22 01:11:45;;;;;;;25.3;8.2;;;;;;;4.9;100.0;101570;;;;
2022/02/22 01:13:45;;;;;;;25.3;8.2;;;;;;;4.8;100.0;101570;;;;
2022/02/22 01:19:45;;;;;;;25.3;8.2;;;;;;;4.7;100.0;101560;;;;
2022/02/22 01:23:45;;;;;;;25.3;8.2;;;;;;;4.8;100.0;101570;;;;
2022/02/22 01:25:45;;;;;;;25.3;8.2;;;;;;;4.7;100.0;101570;;;;
2022/02/22 01:29:45;;;;;;;25.3;8.2;;;;;;;4.6;100.0;101560;;;;
2022/02/22 01:31:45;;;;;;;31.4;8.4;;;;;;;4.7;100.0;101560;;;;
2022/02/22 01:39:45;;;;;;;31.4;8.4;;;;;;;4.6;100.0;101560;;;;
2022/02/22 01:41:45;;;;;;;31.4;8.4;;;;;;;4.7;100.0;101570;;;;
2022/02/22 01:47:45;;;;;;;31.4;8.4;;;;;;;4.6;100.0;101570;;;;
2022/02/22 01:57:45;;;;;;;34.8;8.1;;;;;;;4.7;100.0;101550;;;;
2022/02/22 02:01:46;;;;;;;34.8;8.1;;;;;;;4.8;100.0;101560;;;;
2022/02/22 02:03:47;;;;;;;34.8;8.1;;;;;;;4.7;100.0;101560;;;;
2022/02/22 02:07:47;;;;;;;34.8;8.1;;;;;;;4.6;100.0;101560;;;;
2022/02/22 02:09:48;;;;;;;26.8;8.1;;;;;;;4.7;100.0;101570;;;;
2022/02/22 02:11:45;;;;;;;26.8;8.1;;;;;;;4.6;100.0;101570;;;;
2022/02/22 02:13:46;;;;;;;26.8;8.1;;;;;;;4.7;100.0;101570;;;;
2022/02/22 02:15:45;;;;;;;26.8;8.1;;;;;;;4.6;100.0;101580;;;;
2022/02/22 02:17:45;;;;;;;26.8;8.1;;;;;;;4.5;100.0;101580;;;;
2022/02/22 02:27:45;;;;;;;26.8;8.1;;;;;;;4.4;100.0;101580;;;;
2022/02/22 02:31:45;;;;;;;30.9;8.3;;;;;;;4.3;100.0;101580;;;;
2022/02/22 02:39:45;;;;;;;30.9;8.3;;;;;;;4.2;100.0;101580;;;;
2022/02/22 02:45:45;;;;;;;30.9;8.3;;;;;;;4.1;100.0;101580;;;;
2022/02/22 02:57:45;;;;;;;27.0;9.7;;;;;;;4.0;100.0;101580;;;;
2022/02/22 03:15:45;;;;;;;34.5;8.4;;;;;;;3.8;100.0;101620;;;;
2022/02/22 03:17:45;;;;;;;34.5;8.4;;;;;;;3.9;100.0;101610;;;;
2022/02/22 03:19:45;;;;;;;34.5;8.4;;;;;;;3.8;100.0;101610;;;;
2022/02/22 03:39:45;;;;;;;31.0;8.6;;;;;;;3.7;100.0;101610;;;;
2022/02/22 03:45:45;;;;;;;31.0;8.6;;;;;;;3.8;100.0;101620;;;;
2022/02/22 03:47:45;;;;;;;31.0;8.6;;;;;;;3.7;100.0;101610;;;;
2022/02/22 03:49:45;;;;;;;29.6;8.1;;;;;;;3.8;100.0;101610;;;;
2022/02/22 04:03:45;;;;;;;29.6;8.1;;;;;;;3.9;100.0;101620;;;;
2022/02/22 04:21:45;;;;;;;31.4;8.8;;;;;;;4.0;100.0;101610;;;;
2022/02/22 04:31:45;;;;;;;27.7;7.7;;;;;;;3.9;100.0;101630;;;;
2022/02/22 04:37:45;;;;;;;27.7;7.7;;;;;;;3.8;100.0;101640;;;;
2022/02/22 04:43:45;;;;;;;27.7;7.7;;;;;;;3.7;100.0;101640;;;;
2022/02/22 04:45:45;;;;;;;27.7;7.7;;;;;;;3.8;100.0;101640;;;;
2022/02/22 04:49:46;;;;;;;28.1;7.2;;;;;;;3.7;100.0;101630;;;;
2022/02/22 04:57:45;;;;;;;28.1;7.2;;;;;;;3.6;100.0;101640;;;;
2022/02/22 05:05:45;;;;;;;28.1;7.2;;;;;;;3.5;100.0;101640;;;;
2022/02/22 05:17:45;;;;;;;27.6;7.9;;;;;;;3.4;100.0;101640;;;;
2022/02/22 05:23:45;;;;;;;27.6;7.9;;;;;;;3.3;100.0;101630;;;;
2022/02/22 05:37:45;;;;;;;28.1;7.8;;;;;;;3.2;100.0;101650;;;;
2022/02/22 05:43:45;;;;;;;28.1;7.8;;;;;;;3.1;100.0;101650;;;;
2022/02/22 05:47:45;;;;;;;28.1;7.8;;;;;;;3.2;100.0;101650;;;;
2022/02/22 06:07:45;;;;;;;26.9;7.3;;;;;;;3.1;100.0;101650;;;;
2022/02/22 06:09:45;;;;;;;24.2;7.4;;;;;;;3.2;100.0;101650;;;;
2022/02/22 06:15:45;;;;;;;24.2;7.4;;;;;;;3.1;100.0;101660;;;;
2022/02/22 06:19:45;;;;;;;24.2;7.4;;;;;;;3.2;100.0;101650;;;;
2022/02/22 06:21:45;;;;;;;24.2;7.4;;;;;;;3.1;100.0;101650;;;;
2022/02/22 06:25:45;;;;;;;24.2;7.4;;;;;;;3.2;100.0;101660;;;;
2022/02/22 06:27:45;;;;;;;24.2;7.4;;;;;;;3.1;100.0;101660;;;;
2022/02/22 06:53:45;;;;;;;25.4;7.2;;;;;;;3.2;100.0;101660;;;;
2022/02/22 06:57:45;;;;;;;25.4;7.2;;;;;;;3.1;100.0;101650;;;;
2022/02/22 06:59:45;;;;;;;25.4;7.2;;;;;;;3.2;100.0;101660;;;;
2022/02/22 07:09:45;;;;;;;22.3;7.6;;;;;;;3.3;100.0;101650;;;;
2022/02/22 07:15:45;;;;;;;22.3;7.6;;;;;;;3.4;100.0;101650;;;;
2022/02/22 07:17:45;;;;;;;22.3;7.6;;;;;;;3.5;100.0;101640;;;;
2022/02/22 07:25:45;;;;;;;22.3;7.6;;;;;;;3.6;100.0;101640;;;;
2022/02/22 07:29:45;;;;;;;22.9;7.9;;;;;;;3.7;100.0;101640;;;;
2022/02/22 07:31:45;;;;;;;22.9;7.9;;;;;;;3.8;100.0;101650;;;;
2022/02/22 07:33:45;;;;;;;22.9;7.9;;;;;;;3.9;100.0;101640;;;;
2022/02/22 07:37:45;;;;;;;22.9;7.9;;;;;;;4.0;100.0;101640;;;;
2022/02/22 07:39:45;;;;;;;22.9;7.9;;;;;;;3.9;100.0;101640;;;;
2022/02/22 07:41:45;;;;;;;22.9;7.9;;;;;;;4.0;100.0;101640;;;;
2022/02/22 07:43:45;;;;;;;22.9;7.9;;;;;;;4.1;100.0;101630;;;;
2022/02/22 07:45:45;;;;;;;22.9;7.9;;;;;;;4.2;100.0;101620;;;;
2022/02/22 07:51:45;;;;;;;23.7;9.2;;;;;;;4.3;100.0;101610;;;;
2022/02/22 07:57:46;;;;;;;23.7;9.2;;;;;;;4.4;100.0;101600;;;;
2022/02/22 08:01:45;;;;;;;23.7;9.2;;;;;;;4.5;100.0;101590;;;;
2022/02/22 08:07:45;;;;;;;23.7;9.2;;;;;;;4.6;100.0;101590;;;;
2022/02/22 08:11:45;;;;;;;21.3;9.2;;;;;;;4.7;100.0;101590;;;;
2022/02/22 08:17:45;;;;;;;21.3;9.2;;;;;;;4.8;100.0;101580;;;;
2022/02/22 08:19:45;;;;;;;21.3;9.2;;;;;;;4.9;100.0;101570;;;;
2022/02/22 08:21:45;;;;;;;21.3;9.2;;;;;;;4.8;100.0;101570;;;;
2022/02/22 08:25:45;;;;;;;21.3;9.2;;;;;;;4.9;100.0;101580;;;;
2022/02/22 08:29:45;;;;;;;20.0;8.6;;;;;;;5.1;100.0;101580;;;;
2022/02/22 08:33:45;;;;;;;20.0;8.6;;;;;;;5.2;100.0;101560;;;;
2022/02/22 08:35:45;;;;;;;20.0;8.6;;;;;;;5.1;100.0;101570;;;;
2022/02/22 08:37:46;;;;;;;20.0;8.6;;;;;;;5.2;100.0;101560;;;;
2022/02/22 08:45:45;;;;;;;20.0;8.6;;;;;;;5.4;100.0;101560;;;;
2022/02/22 08:49:47;;;;;;;26.8;10.3;;;;;;;5.5;100.0;101560;;;;
2022/02/22 08:53:45;;;;;;;26.8;10.3;;;;;;;5.6;100.0;101550;;;;
2022/02/22 08:57:45;;;;;;;26.8;10.3;;;;;;;5.7;100.0;101550;;;;
2022/02/22 09:05:45;;;;;;;26.8;10.3;;;;;;;5.8;100.0;101540;;;;
2022/02/22 09:11:45;;;;;;;21.4;9.1;;;;;;;5.9;100.0;101530;;;;
2022/02/22 09:15:45;;;;;;;21.4;9.1;;;;;;;6.0;100.0;101530;;;;
2022/02/22 09:17:45;;;;;;;21.4;9.1;;;;;;;6.1;100.0;101520;;;;
2022/02/22 09:23:45;;;;;;;21.4;9.1;;;;;;;6.2;100.0;101520;;;;
2022/02/22 09:25:45;;;;;;;21.4;9.1;;;;;;;6.3;100.0;101520;;;;
2022/02/22 09:31:49;;;;;;;23.0;8.4;;;;;;;6.5;100.0;101500;;;;
2022/02/22 09:35:46;;;;;;;23.0;8.4;;;;;;;6.6;100.0;101490;;;;
2022/02/22 09:53:48;;;;;;;24.5;8.2;;;;;;;6.7;100.0;101480;;;;
2022/02/22 09:59:45;;;;;;;24.5;8.2;;;;;;;6.5;100.0;101490;;;;
2022/02/22 10:01:46;;;;;;;24.5;8.2;;;;;;;6.7;100.0;101490;;;;
2022/02/22 10:07:45;;;;;;;22.1;7.6;;;;;;;6.8;100.0;101500;;;;
2022/02/22 10:09:45;;;;;;;22.1;7.6;;;;;;;6.7;100.0;101500;;;;
2022/02/22 10:19:47;;;;;;;22.1;7.6;;;;;;;6.8;100.0;101490;;;;
2022/02/22 10:27:45;;;;;;;23.3;7.4;;;;;;;6.9;100.0;101500;;;;
2022/02/22 10:31:45;;;;;;;23.3;7.4;;;;;;;6.8;100.0;101470;;;;
2022/02/22 10:35:46;;;;;;;23.3;7.4;;;;;;;6.9;100.0;101450;;;;
2022/02/22 10:37:45;;;;;;;23.3;7.4;;;;;;;7.0;100.0;101440;;;;
2022/02/22 10:41:46;;;;;;;23.3;7.4;;;;;;;7.1;100.0;101430;;;;
2022/02/22 10:45:49;;;;;;;23.3;7.4;;;;;;;7.2;100.0;101410;;;;
2022/02/22 10:47:45;;;;;;;21.9;8.1;;;;;;;7.3;100.0;101420;;;;
2022/02/22 10:49:45;;;;;;;21.9;8.1;;;;;;;7.2;100.0;101420;;;;
2022/02/22 10:51:46;;;;;;;21.9;8.1;;;;;;;7.1;100.0;101410;;;;
2022/02/22 10:53:46;;;;;;;21.9;8.1;;;;;;;7.2;100.0;101410;;;;
2022/02/22 10:57:45;;;;;;;21.9;8.1;;;;;;;7.1;100.0;101400;;;;
2022/02/22 11:01:46;;;;;;;21.9;8.1;;;;;;;7.2;100.0;101390;;;;
2022/02/22 11:03:46;;;;;;;21.9;8.1;;;;;;;7.3;100.0;101390;;;;
2022/02/22 11:05:45;;;;;;;21.9;8.1;;;;;;;7.4;100.0;101390;;;;
2022/02/22 11:07:45;;;;;;;25.5;8.2;;;;;;;7.3;100.0;101380;;;;
2022/02/22 11:09:45;;;;;;;25.5;8.2;;;;;;;7.4;100.0;101400;;;;
2022/02/22 11:11:45;;;;;;;25.5;8.2;;;;;;;7.3;100.0;101390;;;;
2022/02/22 11:13:45;;;;;;;25.5;8.2;;;;;;;7.5;100.0;101390;;;;
2022/02/22 11:21:45;;;;;;;25.5;8.2;;;;;;;7.4;100.0;101400;;;;
2022/02/22 11:25:49;;;;;;;25.5;8.2;;;;;;;7.3;100.0;101390;;;;
2022/02/22 11:27:45;;;;;;;31.7;10.0;;;;;;;7.4;100.0;101390;;;;
2022/02/22 11:33:46;;;;;;;31.7;10.0;;;;;;;7.3;100.0;101390;;;;
2022/02/22 11:35:45;;;;;;;31.7;10.0;;;;;;;7.2;100.0;101390;;;;
2022/02/22 12:01:45;;;;;;;31.0;10.0;;;;;;;7.3;100.0;101390;;;;
2022/02/22 12:03:45;;;;;;;31.0;10.0;;;;;;;7.2;100.0;101390;;;;
2022/02/22 12:07:45;;;;;;;33.0;9.8;;;;;;;7.1;100.0;101360;;;;
2022/02/22 12:09:45;;;;;;;33.0;9.8;;;;;;;7.2;100.0;101360;;;;
2022/02/22 12:11:49;;;;;;;33.0;9.8;;;;;;;7.3;100.0;101370;;;;
2022/02/22 12:13:45;;;;;;;33.0;9.8;;;;;;;7.2;100.0;101360;;;;
2022/02/22 12:15:45;;;;;;;33.0;9.8;;;;;;;7.3;100.0;101350;;;;
2022/02/22 12:17:48;;;;;;;33.0;9.8;;;;;;;7.4;100.0;101360;;;;
2022/02/22 12:23:46;;;;;;;33.0;9.8;;;;;;;7.5;100.0;101330;;;;
2022/02/22 12:25:45;;;;;;;33.0;9.8;;;;;;;7.4;100.0;101330;;;;
2022/02/22 12:27:45;;;;;;;30.6;10.5;;;;;;;7.6;100.0;101320;;;;
2022/02/22 12:31:53;;;;;;;30.6;10.5;;;;;;;7.7;100.0;101310;;;;
2022/02/22 12:33:45;;;;;;;30.6;10.5;;;;;;;7.6;100.0;101300;;;;
2022/02/22 12:37:45;;;;;;;30.6;10.5;;;;;;;7.7;100.0;101290;;;;
2022/02/22 12:43:46;;;;;;;30.6;10.5;;;;;;;7.8;100.0;101280;;;;
2022/02/22 12:51:48;;;;;;;28.0;10.4;;;;;;;7.9;100.0;101260;;;;
2022/02/22 12:57:55;;;;;;;28.0;10.4;;;;;;;8.0;100.0;101250;;;;
2022/02/22 13:01:45;;;;;;;28.0;10.4;;;;;;;8.1;100.0;101240;;;;
2022/02/22 13:05:45;;;;;;;28.0;10.4;;;;;;;8.3;100.0;101230;;;;
2022/02/22 13:07:48;;;;;;;35.0;13.1;;;;;;;8.2;100.0;101230;;;;
2022/02/22 13:11:46;;;;;;;35.0;13.1;;;;;;;8.4;100.0;101240;;;;
2022/02/22 13:17:45;;;;;;;35.0;13.1;;;;;;;8.5;100.0;101220;;;;
2022/02/22 13:19:45;;;;;;;35.0;13.1;;;;;;;8.6;100.0;101230;;;;
2022/02/22 13:23:45;;;;;;;35.0;13.1;;;;;;;8.5;100.0;101210;;;;
2022/02/22 13:25:56;;;;;;;35.0;13.1;;;;;;;8.7;100.0;101200;;;;
2022/02/22 13:37:45;;;;;;;32.2;10.9;;;;;;;8.8;100.0;101180;;;;
2022/02/22 13:39:45;;;;;;;32.2;10.9;;;;;;;8.9;100.0;101190;;;;
2022/02/22 13:43:46;;;;;;;32.2;10.9;;;;;;;9.0;100.0;101180;;;;
2022/02/22 13:45:45;;;;;;;32.2;10.9;;;;;;;9.1;100.0;101190;;;;
2022/02/22 13:49:45;;;;;;;23.4;9.4;;;;;;;9.0;100.0;101180;;;;
2022/02/22 13:55:45;;;;;;;23.4;9.4;;;;;;;9.1;100.0;101180;;;;
2022/02/22 14:01:45;;;;;;;23.4;9.4;;;;;;;9.0;100.0;101170;;;;
2022/02/22 14:05:45;;;;;;;23.4;9.4;;;;;;;9.1;100.0;101150;;;;
2022/02/22 14:09:45;;;;;;;20.9;8.7;;;;;;;9.0;100.0;101160;;;;
2022/02/22 14:17:45;;;;;;;20.9;8.7;;;;;;;9.1;100.0;101160;;;;
2022/02/22 14:21:45;;;;;;;20.9;8.7;;;;;;;9.0;100.0;101140;;;;
2022/02/22 14:23:45;;;;;;;20.9;8.7;;;;;;;9.1;100.0;101150;;;;
2022/02/22 14:25:46;;;;;;;20.9;8.7;;;;;;;8.9;100.0;101140;;;;
2022/02/22 14:27:48;;;;;;;17.0;9.1;;;;;;;9.0;100.0;101140;;;;
2022/02/22 14:31:47;;;;;;;17.0;9.1;;;;;;;9.1;100.0;101130;;;;
2022/02/22 14:33:48;;;;;;;17.0;9.1;;;;;;;9.2;100.0;101130;;;;
2022/02/22 14:39:45;;;;;;;17.0;9.1;;;;;;;9.3;100.0;101100;;;;
2022/02/22 14:43:49;;;;;;;17.0;9.1;;;;;;;9.4;100.0;101090;;;;
2022/02/22 14:45:45;;;;;;;17.0;9.1;;;;;;;9.3;100.0;101100;;;;
2022/02/22 14:47:45;;;;;;;18.3;7.9;;;;;;;9.4;100.0;101100;;;;
2022/02/22 14:53:45;;;;;;;18.3;7.9;;;;;;;9.5;100.0;101100;;;;
2022/02/22 14:55:45;;;;;;;18.3;7.9;;;;;;;9.4;100.0;101100;;;;
2022/02/22 15:03:45;;;;;;;18.3;7.9;;;;;;;9.5;100.0;101080;;;;
2022/02/22 15:05:46;;;;;;;18.3;7.9;;;;;;;9.4;100.0;101090;;;;
2022/02/22 15:07:45;;;;;;;16.8;8.0;;;;;;;9.5;100.0;101090;;;;
2022/02/22 15:09:45;;;;;;;16.8;8.0;;;;;;;9.3;100.0;101090;;;;
2022/02/22 15:11:46;;;;;;;16.8;8.0;;;;;;;9.5;100.0;101080;;;;
2022/02/22 15:15:45;;;;;;;16.8;8.0;;;;;;;9.4;100.0;101080;;;;
2022/02/22 15:19:45;;;;;;;16.8;8.0;;;;;;;9.5;100.0;101070;;;;
2022/02/22 15:21:47;;;;;;;16.8;8.0;;;;;;;9.6;100.0;101080;;;;
2022/02/22 15:23:45;;;;;;;16.8;8.0;;;;;;;9.5;100.0;101080;;;;
2022/02/22 15:25:55;;;;;;;16.8;8.0;;;;;;;9.6;100.0;101080;;;;
2022/02/22 15:43:45;;;;;;;17.0;7.4;;;;;;;9.5;100.0;101060;;;;
2022/02/22 15:45:45;;;;;;;17.0;7.4;;;;;;;9.4;100.0;101060;;;;
2022/02/22 15:47:45;;;;;;;23.5;8.8;;;;;;;9.5;100.0;101050;;;;
2022/02/22 15:49:45;;;;;;;23.5;8.8;;;;;;;9.4;100.0;101060;;;;
2022/02/22 15:53:47;;;;;;;23.5;8.8;;;;;;;9.5;100.0;101060;;;;
2022/02/22 15:59:45;;;;;;;23.5;8.8;;;;;;;9.4;100.0;101060;;;;
2022/02/22 16:13:45;;;;;;;22.6;10.4;;;;;;;9.3;100.0;101080;;;;
2022/02/22 16:15:45;;;;;;;22.6;10.4;;;;;;;9.2;100.0;101080;;;;
2022/02/22 16:17:45;;;;;;;22.6;10.4;;;;;;;9.4;100.0;101080;;;;
2022/02/22 16:19:45;;;;;;;22.6;10.4;;;;;;;9.3;100.0;101080;;;;
2022/02/22 16:25:45;;;;;;;22.6;10.4;;;;;;;9.2;100.0;101080;;;;
2022/02/22 16:35:45;;;;;;;25.8;12.2;;;;;;;9.1;100.0;101080;;;;
2022/02/22 16:37:45;;;;;;;25.8;12.2;;;;;;;9.2;100.0;101090;;;;
2022/02/22 16:39:45;;;;;;;25.8;12.2;;;;;;;9.1;100.0;101080;;;;
2022/02/22 16:41:45;;;;;;;25.8;12.2;;;;;;;9.0;100.0;101090;;;;
2022/02/22 16:43:45;;;;;;;25.8;12.2;;;;;;;9.1;100.0;101090;;;;
2022/02/22 16:45:45;;;;;;;25.8;12.2;;;;;;;9.0;100.0;101090;;;;
2022/02/22 16:49:45;;;;;;;23.6;10.6;;;;;;;9.1;100.0;101100;;;;
2022/02/22 16:53:47;;;;;;;23.6;10.6;;;;;;;9.0;100.0;101100;;;;
2022/02/22 16:57:45;;;;;;;23.6;10.6;;;;;;;8.9;100.0;101110;;;;
2022/02/22 16:59:45;;;;;;;23.6;10.6;;;;;;;9.0;100.0;101110;;;;
2022/02/22 17:07:45;;;;;;;27.1;13.7;;;;;;;9.1;100.0;101110;;;;
2022/02/22 17:17:45;;;;;;;27.1;13.7;;;;;;;9.0;100.0;101120;;;;
2022/02/22 17:21:45;;;;;;;27.1;13.7;;;;;;;9.1;100.0;101130;;;;
2022/02/22 17:23:45;;;;;;;27.1;13.7;;;;;;;9.0;100.0;101130;;;;
2022/02/22 17:27:45;;;;;;;31.5;13.0;;;;;;;9.1;100.0;101150;;;;
2022/02/22 17:33:50;;;;;;;31.5;13.0;;;;;;;9.0;100.0;101160;;;;
2022/02/22 17:35:45;;;;;;;31.5;13.0;;;;;;;8.9;100.0;101170;;;;
2022/02/22 17:37:45;;;;;;;31.5;13.0;;;;;;;8.8;100.0;101160;;;;
2022/02/22 17:39:46;;;;;;;31.5;13.0;;;;;;;8.9;100.0;101160;;;;
2022/02/22 17:47:45;;;;;;;32.6;11.2;;;;;;;9.0;100.0;101180;;;;
2022/02/22 17:49:50;;;;;;;32.6;11.2;;;;;;;8.9;100.0;101180;;;;
2022/02/22 17:57:45;;;;;;;32.6;11.2;;;;;;;8.8;100.0;101210;;;;
2022/02/22 17:59:45;;;;;;;32.6;11.2;;;;;;;8.9;100.0;101220;;;;
2022/02/22 18:01:48;;;;;;;32.6;11.2;;;;;;;8.8;100.0;101260;;;;
2022/02/22 18:05:46;;;;;;;20.2;6.1;;;;;;;8.6;100.0;101290;;;;
2022/02/22 18:07:45;;;;;;;20.2;6.1;;;;;;;8.4;100.0;101280;;;;
2022/02/22 18:11:45;;;;;;;20.2;6.1;;;;;;;8.3;100.0;101300;;;;
2022/02/22 18:15:45;;;;;;;20.2;6.1;;;;;;;8.2;100.0;101300;;;;
2022/02/22 18:19:46;;;;;;;20.2;6.1;;;;;;;8.1;100.0;101300;;;;
2022/02/22 18:23:46;;;;;;;20.2;6.1;;;;;;;8.0;100.0;101310;;;;
2022/02/22 18:29:50;;;;;;;21.7;6.7;;;;;;;7.9;100.0;101330;;;;
2022/02/22 18:31:46;;;;;;;21.7;6.7;;;;;;;8.0;100.0;101340;;;;
2022/02/22 18:39:49;;;;;;;21.7;6.7;;;;;;;7.9;100.0;101350;;;;
2022/02/22 18:43:46;;;;;;;21.7;6.7;;;;;;;7.8;100.0;101360;;;;
2022/02/22 18:47:45;;;;;;;18.9;5.8;;;;;;;7.7;100.0;101360;;;;
2022/02/22 18:51:47;;;;;;;18.9;5.8;;;;;;;7.6;100.0;101390;;;;
2022/02/22 18:57:45;;;;;;;18.9;5.8;;;;;;;7.5;100.0;101400;;;;
2022/02/22 18:59:47;;;;;;;18.9;5.8;;;;;;;7.6;100.0;101400;;;;
2022/02/22 19:01:45;;;;;;;18.9;5.8;;;;;;;7.5;100.0;101410;;;;
2022/02/22 19:07:45;;;;;;;19.1;6.2;;;;;;;7.4;100.0;101420;;;;
2022/02/22 19:09:45;;;;;;;19.1;6.2;;;;;;;7.3;100.0;101430;;;;
2022/02/22 19:13:45;;;;;;;19.1;6.2;;;;;;;7.4;100.0;101440;;;;
2022/02/22 19:17:45;;;;;;;19.1;6.2;;;;;;;7.3;100.0;101440;;;;
2022/02/22 19:21:45;;;;;;;19.1;6.2;;;;;;;7.2;100.0;101450;;;;
2022/02/22 19:25:45;;;;;;;18.9;6.2;;;;;;;7.1;100.0;101460;;;;
2022/02/22 19:29:45;;;;;;;18.9;6.2;;;;;;;7.0;100.0;101470;;;;
2022/02/22 19:31:45;;;;;;;18.9;6.2;;;;;;;7.1;100.0;101480;;;;
2022/02/22 19:33:45;;;;;;;18.9;6.2;;;;;;;7.0;100.0;101480;;;;
2022/02/22 19:35:49;;;;;;;18.9;6.2;;;;;;;7.1;100.0;101490;;;;
2022/02/22 19:37:45;;;;;;;18.9;6.2;;;;;;;7.0;100.0;101490;;;;
2022/02/22 19:41:45;;;;;;;18.9;6.2;;;;;;;6.9;100.0;101490;;;;
2022/02/22 19:57:45;;;;;;;17.2;5.4;;;;;;;6.8;100.0;101520;;;;
2022/02/22 20:05:48;;;;;;;13.0;4.4;;;;;;;6.7;100.0;101540;;;;
2022/02/22 20:07:46;;;;;;;13.0;4.4;;;;;;;6.8;100.0;101540;;;;
2022/02/22 20:09:45;;;;;;;13.0;4.4;;;;;;;6.7;100.0;101540;;;;
2022/02/22 20:11:45;;;;;;;13.0;4.4;;;;;;;6.8;100.0;101550;;;;
2022/02/22 20:13:45;;;;;;;13.0;4.4;;;;;;;6.7;100.0;101550;;;;
2022/02/22 20:21:45;;;;;;;13.0;4.4;;;;;;;6.6;100.0;101570;;;;
2022/02/22 20:29:45;;;;;;;14.5;4.2;;;;;;;6.5;100.0;101580;;;;
2022/02/22 20:33:45;;;;;;;14.5;4.2;;;;;;;6.6;100.0;101590;;;;
2022/02/22 20:35:45;;;;;;;14.5;4.2;;;;;;;6.5;100.0;101590;;;;
2022/02/22 20:45:45;;;;;;;12.6;4.8;;;;;;;6.4;100.0;101610;;;;
2022/02/22 20:49:45;;;;;;;12.6;4.8;;;;;;;6.3;100.0;101620;;;;
2022/02/22 20:53:45;;;;;;;12.6;4.8;;;;;;;6.4;100.0;101630;;;;
2022/02/22 20:57:45;;;;;;;12.6;4.8;;;;;;;6.3;100.0;101640;;;;
2022/02/22 21:03:45;;;;;;;12.6;4.8;;;;;;;6.2;100.0;101650;;;;
2022/02/22 21:05:45;;;;;;;12.6;4.5;;;;;;;6.3;100.0;101660;;;;
2022/02/22 21:09:45;;;;;;;12.6;4.5;;;;;;;6.2;100.0;101660;;;;
2022/02/22 21:17:45;;;;;;;12.6;4.5;;;;;;;6.1;100.0;101670;;;;
2022/02/22 21:23:46;;;;;;;12.6;4.5;;;;;;;6.0;100.0;101680;;;;
2022/02/22 21:29:45;;;;;;;19.8;6.2;;;;;;;5.9;100.0;101700;;;;
2022/02/22 21:31:45;;;;;;;19.8;6.2;;;;;;;6.0;100.0;101700;;;;
2022/02/22 21:33:46;;;;;;;19.8;6.2;;;;;;;5.9;100.0;101700;;;;
2022/02/22 21:37:45;;;;;;;19.8;6.2;;;;;;;5.8;100.0;101710;;;;
2022/02/22 21:41:45;;;;;;;19.8;6.2;;;;;;;5.7;100.0;101710;;;;
2022/02/22 21:43:45;;;;;;;19.8;6.2;;;;;;;5.8;100.0;101720;;;;
2022/02/22 21:47:45;;;;;;;14.2;5.9;;;;;;;5.7;100.0;101720;;;;
2022/02/22 21:55:45;;;;;;;14.2;5.9;;;;;;;5.6;100.0;101740;;;;
2022/02/22 22:09:45;;;;;;;14.0;5.5;;;;;;;5.5;100.0;101770;;;;
2022/02/22 22:13:45;;;;;;;14.0;5.5;;;;;;;5.6;100.0;101770;;;;
2022/02/22 22:15:45;;;;;;;14.0;5.5;;;;;;;5.5;100.0;101780;;;;
2022/02/22 22:17:45;;;;;;;14.0;5.5;;;;;;;5.6;100.0;101790;;;;
2022/02/22 22:23:46;;;;;;;14.0;5.5;;;;;;;5.5;100.0;101800;;;;
2022/02/22 22:25:45;;;;;;;13.6;5.4;;;;;;;5.6;100.0;101800;;;;
2022/02/22 22:27:48;;;;;;;13.6;5.4;;;;;;;5.5;100.0;101810;;;;
2022/02/22 22:31:45;;;;;;;13.6;5.4;;;;;;;5.6;100.0;101820;;;;
2022/02/22 22:33:45;;;;;;;13.6;5.4;;;;;;;5.5;100.0;101820;;;;
2022/02/22 22:35:55;;;;;;;13.6;5.4;;;;;;;5.6;100.0;101830;;;;
2022/02/22 22:37:45;;;;;;;13.6;5.4;;;;;;;5.5;100.0;101830;;;;
2022/02/22 22:49:45;;;;;;;16.9;7.2;;;;;;;5.4;100.0;101860;;;;
2022/02/22 22:55:45;;;;;;;16.9;7.2;;;;;;;5.3;100.0;101870;;;;
2022/02/22 22:57:45;;;;;;;16.9;7.2;;;;;;;5.4;100.0;101870;;;;
2022/02/22 22:59:45;;;;;;;16.9;7.2;;;;;;;5.3;100.0;101870;;;;
2022/02/22 23:03:45;;;;;;;16.9;7.2;;;;;;;5.4;100.0;101880;;;;
2022/02/22 23:15:45;;;;;;;15.9;5.6;;;;;;;5.3;100.0;101900;;;;
2022/02/22 23:21:45;;;;;;;15.9;5.6;;;;;;;5.2;100.0;101910;;;;
2022/02/22 23:23:45;;;;;;;15.9;5.6;;;;;;;5.3;100.0;101920;;;;
2022/02/22 23:25:45;;;;;;;14.3;5.2;;;;;;;5.2;100.0;101920;;;;
2022/02/22 23:31:45;;;;;;;14.3;5.2;;;;;;;5.1;100.0;101920;;;;
2022/02/22 23:33:45;;;;;;;14.3;5.2;;;;;;;5.2;100.0;101930;;;;
2022/02/22 23:35:45;;;;;;;14.3;5.2;;;;;;;5.1;100.0;101920;;;;
2022/02/22 23:43:45;;;;;;;14.3;5.2;;;;;;;5.2;100.0;101930;;;;
2022/02/22 23:47:45;;;;;;;14.9;5.3;;;;;;;5.1;100.0;101940;;;;
2022/02/22 23:53:45;;;;;;;14.9;5.3;;;;;;;5.0;100.0;101940;;;;
